createdAt,value
2019-03-28T00:02:08.319Z,14.63
2019-03-28T00:04:50.102Z,15.33
2019-03-28T00:07:32.040Z,14.93
2019-03-28T00:10:13.945Z,14.93
2019-03-28T00:12:56.033Z,21.40
2019-03-28T00:15:37.775Z,18.30
2019-03-28T00:18:20.620Z,17.43
2019-03-28T00:21:02.459Z,16.50
2019-03-28T00:26:52.504Z,19.83
2019-03-28T00:29:33.863Z,17.23
2019-03-28T00:32:15.739Z,19.40
2019-03-28T00:34:57.664Z,17.70
2019-03-28T00:37:39.395Z,18.20
2019-03-28T00:40:21.545Z,17.53
2019-03-28T00:43:03.231Z,18.40
2019-03-28T00:45:45.326Z,18.70
2019-03-28T00:48:27.393Z,18.30
2019-03-28T00:51:09.491Z,17.87
2019-03-28T00:53:51.483Z,18.33
2019-03-28T00:56:45.004Z,17.70
2019-03-28T00:59:17.544Z,18.50
2019-03-28T01:01:59.438Z,17.90
2019-03-28T01:04:41.479Z,18.70
2019-03-28T01:07:22.587Z,18.60
2019-03-28T01:10:04.588Z,18.47
2019-03-28T01:12:46.544Z,17.20
2019-03-28T01:15:28.360Z,17.93
2019-03-28T01:18:10.086Z,18.67
2019-03-28T01:20:52.268Z,19.93
2019-03-28T01:23:34.195Z,19.50
2019-03-28T01:26:16.055Z,19.80
2019-03-28T01:28:57.832Z,18.90
2019-03-28T01:31:39.760Z,18.67
2019-03-28T01:34:21.743Z,18.50
2019-03-28T01:37:04.209Z,19.30
2019-03-28T01:39:45.859Z,20.13
2019-03-28T01:42:28.889Z,19.07
2019-03-28T01:45:10.727Z,19.67
2019-03-28T01:47:52.707Z,18.77
2019-03-28T01:50:34.504Z,19.60
2019-03-28T01:53:15.653Z,19.30
2019-03-28T01:55:57.680Z,19.37
2019-03-28T01:58:40.503Z,19.30
2019-03-28T02:01:22.419Z,19.07
2019-03-28T02:04:04.383Z,17.10
2019-03-28T02:06:46.406Z,17.80
2019-03-28T02:09:28.223Z,18.27
2019-03-28T02:12:09.246Z,21.70
2019-03-28T02:14:50.945Z,21.93
2019-03-28T02:17:32.789Z,21.40
2019-03-28T02:20:14.831Z,20.43
2019-03-28T02:22:56.479Z,20.90
2019-03-28T02:25:38.474Z,20.87
2019-03-28T02:28:20.415Z,20.30
2019-03-28T02:31:01.495Z,19.80
2019-03-28T02:33:43.587Z,21.37
2019-03-28T02:36:25.565Z,22.03
2019-03-28T02:39:07.504Z,20.50
2019-03-28T02:41:49.263Z,20.90
2019-03-28T02:44:31.467Z,22.77
2019-03-28T02:47:13.510Z,19.73
2019-03-28T02:49:55.279Z,21.03
2019-03-28T02:52:37.256Z,20.77
2019-03-28T02:55:19.222Z,19.33
2019-03-28T02:58:01.137Z,17.93
2019-03-28T03:00:42.316Z,19.47
2019-03-28T03:03:24.189Z,18.90
2019-03-28T03:06:06.062Z,18.93
2019-03-28T03:08:48.085Z,18.87
2019-03-28T03:11:29.829Z,19.20
2019-03-28T03:14:12.055Z,20.33
2019-03-28T03:16:53.716Z,20.67
2019-03-28T03:19:35.684Z,19.10
2019-03-28T03:22:17.446Z,19.80
2019-03-28T03:24:59.485Z,19.70
2019-03-28T03:27:56.916Z,19.60
2019-03-28T03:30:25.189Z,20.03
2019-03-28T03:33:08.959Z,18.13
2019-03-28T03:35:50.775Z,20.10
2019-03-28T03:38:32.724Z,19.80
2019-03-28T03:41:14.521Z,19.33
2019-03-28T03:43:55.603Z,19.57
2019-03-28T03:46:37.479Z,19.60
2019-03-28T03:49:19.524Z,20.07
2019-03-28T03:52:01.598Z,19.90
2019-03-28T03:54:43.492Z,18.30
2019-03-28T03:57:25.412Z,20.13
2019-03-28T04:00:07.171Z,18.20
2019-03-28T04:02:49.096Z,17.00
2019-03-28T04:05:30.901Z,18.10
2019-03-28T04:08:12.878Z,17.00
2019-03-28T04:10:54.696Z,16.33
2019-03-28T04:13:36.570Z,16.70
2019-03-28T04:16:18.396Z,20.40
2019-03-28T04:19:00.290Z,19.40
2019-03-28T04:21:42.194Z,19.13
2019-03-28T04:24:23.368Z,15.57
2019-03-28T04:27:04.522Z,15.60
2019-03-28T04:29:46.636Z,20.20
2019-03-28T04:32:28.537Z,19.10
2019-03-28T04:35:10.590Z,15.60
2019-03-28T04:37:52.391Z,14.77
2019-03-28T04:40:34.536Z,14.70
2019-03-28T04:43:16.652Z,14.50
2019-03-28T04:45:58.780Z,14.50
2019-03-28T04:48:39.792Z,14.57
2019-03-28T04:51:21.628Z,14.70
2019-03-28T04:54:03.594Z,14.40
2019-03-28T04:56:45.402Z,14.07
2019-03-28T04:59:27.337Z,14.90
2019-03-28T05:02:09.199Z,14.60
2019-03-28T05:04:51.089Z,14.90
2019-03-28T05:07:33.116Z,14.33
2019-03-28T05:10:15.444Z,14.93
2019-03-28T05:12:56.976Z,14.07
2019-03-28T05:15:39.161Z,14.37
2019-03-28T05:18:21.099Z,14.77
2019-03-28T05:21:03.247Z,15.03
2019-03-28T05:23:44.312Z,14.87
2019-03-28T05:26:26.273Z,15.23
2019-03-28T05:29:08.051Z,15.00
2019-03-28T05:31:50.154Z,14.10
2019-03-28T05:34:31.988Z,14.33
2019-03-28T05:37:13.978Z,15.23
2019-03-28T05:39:55.795Z,15.77
2019-03-28T05:42:36.831Z,16.10
2019-03-28T05:45:18.641Z,15.07
2019-03-28T05:48:00.407Z,15.40
2019-03-28T05:50:42.511Z,15.43
2019-03-28T05:53:24.356Z,14.87
2019-03-28T05:56:06.309Z,14.10
2019-03-28T05:58:48.345Z,15.20
2019-03-28T06:01:29.308Z,15.30
2019-03-28T06:04:11.232Z,15.20
2019-03-28T06:06:53.325Z,15.23
2019-03-28T06:09:35.128Z,14.80
2019-03-28T06:12:19.010Z,15.50
2019-03-28T06:15:01.208Z,15.30
2019-03-28T06:17:44.016Z,15.70
2019-03-28T06:20:25.772Z,14.90
2019-03-28T06:23:06.663Z,15.57
2019-03-28T06:25:49.524Z,16.30
2019-03-28T06:28:31.505Z,16.00
2019-03-28T06:31:13.331Z,17.00
2019-03-28T06:33:55.500Z,16.13
2019-03-28T06:36:37.317Z,16.80
2019-03-28T06:39:19.203Z,15.87
2019-03-28T06:42:00.959Z,16.23
2019-03-28T06:44:43.985Z,16.60
2019-03-28T06:47:26.005Z,16.57
2019-03-28T06:50:07.851Z,17.30
2019-03-28T06:52:52.162Z,16.60
2019-03-28T06:55:36.676Z,17.17
2019-03-28T06:58:16.760Z,17.87
2019-03-28T07:00:58.720Z,17.93
2019-03-28T07:03:40.737Z,17.50
2019-03-28T07:06:22.508Z,16.70
2019-03-28T07:09:04.652Z,17.40
2019-03-28T07:11:46.621Z,17.53
2019-03-28T07:14:28.576Z,16.93
2019-03-28T07:17:10.380Z,17.50
2019-03-28T07:19:52.360Z,16.60
2019-03-28T07:22:34.389Z,17.30
2019-03-28T07:25:15.887Z,17.33
2019-03-28T07:27:57.368Z,17.47
2019-03-28T07:30:39.180Z,16.90
2019-03-28T07:33:21.350Z,17.53
2019-03-28T07:36:03.052Z,18.67
2019-03-28T07:38:46.957Z,18.50
2019-03-28T07:41:28.945Z,17.37
2019-03-28T07:44:10.056Z,17.83
2019-03-28T07:46:51.785Z,18.00
2019-03-28T07:49:33.800Z,17.83
2019-03-28T07:52:15.728Z,17.60
2019-03-28T07:54:57.595Z,16.93
2019-03-28T07:57:39.664Z,17.40
2019-03-28T08:00:21.687Z,17.63
2019-03-28T08:03:02.631Z,16.50
2019-03-28T08:05:44.579Z,16.37
2019-03-28T08:08:38.345Z,16.60
2019-03-28T08:11:10.256Z,16.50
2019-03-28T08:13:52.291Z,17.83
2019-03-28T08:16:34.335Z,16.20
2019-03-28T08:19:16.246Z,16.53
2019-03-28T08:22:00.105Z,16.80
2019-03-28T08:24:41.912Z,16.97
2019-03-28T08:27:23.749Z,17.30
2019-03-28T08:30:17.532Z,18.00
2019-03-28T08:32:49.303Z,18.97
2019-03-28T08:35:31.024Z,17.80
2019-03-28T08:38:13.036Z,18.73
2019-03-28T08:40:55.047Z,18.20
2019-03-28T08:43:37.038Z,17.73
2019-03-28T08:46:18.920Z,17.37
2019-03-28T08:49:00.881Z,17.77
2019-03-28T08:51:42.815Z,17.87
2019-03-28T08:54:24.693Z,17.40
2019-03-28T08:57:06.655Z,17.73
2019-03-28T08:59:48.408Z,18.60
2019-03-28T09:02:30.504Z,17.10
2019-03-28T09:05:12.625Z,17.27
2019-03-28T09:07:54.529Z,17.10
2019-03-28T09:10:36.628Z,17.20
2019-03-28T09:13:18.510Z,17.97
2019-03-28T09:16:00.411Z,17.00
2019-03-28T09:18:42.354Z,17.40
2019-03-28T09:21:24.368Z,17.60
2019-03-28T09:24:06.433Z,18.33
2019-03-28T09:26:48.547Z,17.80
2019-03-28T09:29:30.364Z,17.80
2019-03-28T09:32:12.375Z,18.30
2019-03-28T09:34:54.328Z,19.50
2019-03-28T09:37:36.363Z,18.77
2019-03-28T09:40:18.475Z,19.50
2019-03-28T09:43:00.271Z,21.70
2019-03-28T09:45:42.360Z,19.70
2019-03-28T09:48:24.144Z,20.57
2019-03-28T09:51:06.083Z,19.87
2019-03-28T09:53:48.119Z,19.67
2019-03-28T09:56:30.021Z,19.73
2019-03-28T09:59:11.828Z,19.93
2019-03-28T10:01:53.632Z,19.70
2019-03-28T10:04:35.704Z,19.93
2019-03-28T10:07:17.522Z,18.77
2019-03-28T10:09:59.684Z,19.73
2019-03-28T10:12:43.879Z,19.80
2019-03-28T10:15:24.508Z,19.97
2019-03-28T10:18:06.400Z,19.67
2019-03-28T10:20:48.370Z,20.50
2019-03-28T10:23:30.274Z,21.10
2019-03-28T10:26:12.160Z,21.30
2019-03-28T10:28:54.200Z,21.10
2019-03-28T10:31:36.056Z,21.10
2019-03-28T10:34:18.041Z,21.50
2019-03-28T10:36:59.048Z,20.67
2019-03-28T10:39:41.167Z,21.57
2019-03-28T10:42:23.124Z,21.90
2019-03-28T10:44:51.275Z,21.10
2019-03-28T10:47:33.417Z,21.80
2019-03-28T10:50:15.331Z,21.60
2019-03-28T10:52:57.531Z,22.07
2019-03-28T10:55:39.445Z,20.70
2019-03-28T10:58:21.477Z,20.83
2019-03-28T11:01:03.475Z,21.70
2019-03-28T11:03:45.501Z,20.83
2019-03-28T11:06:27.562Z,22.00
2019-03-28T11:09:09.352Z,21.93
2019-03-28T11:11:51.424Z,22.20
2019-03-28T11:14:34.382Z,23.17
2019-03-28T11:17:16.373Z,23.60
2019-03-28T11:19:58.131Z,22.40
2019-03-28T11:22:40.115Z,24.30
2019-03-28T11:25:21.034Z,23.33
2019-03-28T11:28:03.169Z,22.43
2019-03-28T11:30:44.768Z,21.57
2019-03-28T11:33:26.780Z,21.00
2019-03-28T11:36:08.435Z,21.30
2019-03-28T11:38:50.255Z,23.77
2019-03-28T11:41:31.276Z,21.80
2019-03-28T11:44:13.271Z,23.00
2019-03-28T11:46:55.165Z,22.90
2019-03-28T11:49:37.056Z,22.93
2019-03-28T11:52:18.884Z,21.73
2019-03-28T11:55:00.895Z,23.03
2019-03-28T11:57:42.798Z,23.27
2019-03-28T12:00:24.588Z,21.73
2019-03-28T12:03:06.485Z,22.20
2019-03-28T12:05:48.559Z,23.30
2019-03-28T12:08:31.562Z,22.70
2019-03-28T12:11:13.499Z,21.87
2019-03-28T12:13:55.525Z,22.57
2019-03-28T12:16:37.388Z,21.43
2019-03-28T12:19:19.493Z,20.53
2019-03-28T12:22:01.391Z,19.83
2019-03-28T12:24:43.207Z,19.67
2019-03-28T12:27:25.313Z,20.40
2019-03-28T12:30:07.072Z,20.13
2019-03-28T12:32:49.073Z,19.00
2019-03-28T12:35:30.985Z,19.33
2019-03-28T12:38:12.856Z,20.43
2019-03-28T12:40:54.755Z,19.40
2019-03-28T12:43:36.756Z,20.57
2019-03-28T12:46:18.636Z,21.10
2019-03-28T12:49:00.557Z,20.57
2019-03-28T12:51:42.474Z,20.60
2019-03-28T12:54:24.464Z,19.97
2019-03-28T12:57:06.348Z,20.43
2019-03-28T12:59:48.474Z,20.63
2019-03-28T13:02:32.054Z,20.23
2019-03-28T13:05:14.204Z,19.17
2019-03-28T13:07:56.128Z,18.97
2019-03-28T13:10:37.993Z,17.57
2019-03-28T13:13:20.127Z,19.70
2019-03-28T13:16:02.153Z,19.10
2019-03-28T13:18:43.211Z,19.00
2019-03-28T13:21:25.331Z,17.70
2019-03-28T13:24:07.924Z,18.10
2019-03-28T13:26:50.031Z,18.53
2019-03-28T13:29:31.953Z,17.93
2019-03-28T13:32:13.872Z,18.10
2019-03-28T13:34:56.644Z,17.33
2019-03-28T13:37:38.452Z,17.10
2019-03-28T13:40:20.667Z,17.10
2019-03-28T13:43:02.656Z,17.53
2019-03-28T13:45:44.577Z,16.23
2019-03-28T13:48:26.769Z,17.07
2019-03-28T13:51:07.777Z,16.83
2019-03-28T13:53:52.116Z,16.77
2019-03-28T13:56:33.700Z,16.27
2019-03-28T13:59:15.487Z,16.33
2019-03-28T14:01:58.679Z,15.80
2019-03-28T14:04:40.691Z,15.87
2019-03-28T14:07:22.968Z,16.33
2019-03-28T14:10:05.415Z,17.00
2019-03-28T14:12:47.395Z,15.97
2019-03-28T14:15:29.415Z,16.47
2019-03-28T14:18:11.493Z,16.53
2019-03-28T14:20:53.288Z,17.87
2019-03-28T14:23:35.182Z,18.53
2019-03-28T14:26:17.136Z,17.03
2019-03-28T14:28:59.052Z,19.63
2019-03-28T14:31:41.975Z,18.77
2019-03-28T14:34:23.728Z,18.97
2019-03-28T14:37:05.940Z,18.13
2019-03-28T14:39:49.370Z,17.70
2019-03-28T14:42:30.855Z,18.63
2019-03-28T14:45:13.024Z,18.00
2019-03-28T14:47:54.828Z,19.30
2019-03-28T14:50:36.820Z,19.47
2019-03-28T14:53:21.974Z,19.37
2019-03-28T14:56:02.740Z,19.90
2019-03-28T14:58:44.555Z,21.23
2019-03-28T15:01:26.899Z,20.27
2019-03-28T15:04:08.341Z,21.57
2019-03-28T15:06:50.179Z,20.07
2019-03-28T15:09:32.336Z,21.90
2019-03-28T15:12:14.268Z,21.50
2019-03-28T15:14:56.285Z,22.20
2019-03-28T15:17:38.129Z,22.20
2019-03-28T15:20:19.993Z,23.27
2019-03-28T15:23:01.979Z,24.80
2019-03-28T15:25:43.901Z,24.40
2019-03-28T15:28:25.885Z,23.17
2019-03-28T15:31:07.849Z,23.60
2019-03-28T15:33:39.753Z,24.40
2019-03-28T15:36:32.122Z,24.43
2019-03-28T15:39:14.218Z,26.17
2019-03-28T15:41:56.210Z,26.00
2019-03-28T15:44:39.608Z,26.27
2019-03-28T15:47:22.364Z,25.97
2019-03-28T15:50:04.127Z,29.00
2019-03-28T15:52:47.121Z,28.77
2019-03-28T15:55:28.892Z,24.70
2019-03-28T15:58:22.628Z,26.07
2019-03-28T16:00:54.628Z,24.50
2019-03-28T16:03:36.596Z,24.90
2019-03-28T16:06:18.471Z,25.47
2019-03-28T16:09:00.520Z,25.40
2019-03-28T16:11:42.745Z,25.17
2019-03-28T16:14:24.692Z,25.03
2019-03-28T16:17:06.841Z,23.87
2019-03-28T16:19:48.817Z,23.30
2019-03-28T16:22:30.889Z,23.70
2019-03-28T16:25:12.906Z,24.90
2019-03-28T16:27:54.853Z,24.37
2019-03-28T16:30:36.893Z,25.13
2019-03-28T16:33:18.793Z,31.17
2019-03-28T16:36:00.719Z,24.90
2019-03-28T16:38:42.604Z,22.60
2019-03-28T16:41:24.465Z,22.70
2019-03-28T16:44:06.456Z,22.90
2019-03-28T16:46:48.280Z,33.83
2019-03-28T16:49:30.376Z,21.77
2019-03-28T16:52:12.227Z,21.60
2019-03-28T16:54:54.185Z,22.80
2019-03-28T16:57:38.513Z,21.70
2019-03-28T17:00:20.177Z,20.70
2019-03-28T17:03:02.067Z,20.53
2019-03-28T17:05:47.043Z,22.70
2019-03-28T17:08:28.255Z,21.87
2019-03-28T17:11:12.098Z,21.43
2019-03-28T17:13:54.467Z,21.63
2019-03-28T17:16:36.058Z,22.60
2019-03-28T17:19:17.943Z,23.63
2019-03-28T17:21:59.872Z,22.40
2019-03-28T17:24:28.118Z,22.33
2019-03-28T17:27:10.525Z,21.27
2019-03-28T17:29:52.642Z,22.43
2019-03-28T17:32:37.005Z,22.43
2019-03-28T17:35:19.468Z,24.20
2019-03-28T17:38:01.402Z,25.93
2019-03-28T17:40:43.495Z,24.27
2019-03-28T17:43:25.668Z,25.63
2019-03-28T17:46:07.599Z,23.40
2019-03-28T17:48:49.496Z,25.67
2019-03-28T17:51:31.560Z,29.50
2019-03-28T17:54:14.592Z,24.57
2019-03-28T17:56:55.854Z,24.33
2019-03-28T17:59:37.805Z,24.80
2019-03-28T18:02:06.160Z,24.93
2019-03-28T18:05:08.463Z,25.00
2019-03-28T18:07:39.729Z,26.77
2019-03-28T18:10:21.378Z,29.90
2019-03-28T18:13:03.249Z,28.60
2019-03-28T18:15:45.317Z,26.23
2019-03-28T18:18:29.142Z,26.43
2019-03-28T18:21:11.096Z,25.00
2019-03-28T18:23:53.288Z,24.60
2019-03-28T18:26:35.084Z,25.50
2019-03-28T18:29:19.208Z,25.93
2019-03-28T18:32:00.877Z,24.20
2019-03-28T18:34:42.968Z,25.57
2019-03-28T18:37:24.739Z,23.30
2019-03-28T18:40:07.708Z,24.00
2019-03-28T18:42:49.656Z,25.77
2019-03-28T18:45:31.376Z,25.73
2019-03-28T18:48:26.932Z,25.83
2019-03-28T18:50:58.124Z,28.00
2019-03-28T18:53:40.201Z,25.13
2019-03-28T18:56:22.139Z,25.23
2019-03-28T18:59:03.988Z,25.57
2019-03-28T19:01:47.811Z,26.10
2019-03-28T19:04:29.728Z,26.97
2019-03-28T19:07:11.936Z,24.10
2019-03-28T19:09:53.928Z,25.60
2019-03-28T19:12:35.782Z,25.97
2019-03-28T19:15:17.796Z,25.90
2019-03-28T19:17:59.997Z,25.43
2019-03-28T19:20:41.889Z,25.40
2019-03-28T19:23:24.848Z,26.40
2019-03-28T19:26:06.771Z,25.60
2019-03-28T19:28:48.800Z,26.80
2019-03-28T19:31:30.668Z,25.20
2019-03-28T19:34:12.672Z,25.70
2019-03-28T19:36:55.791Z,24.93
2019-03-28T19:39:38.348Z,22.67
2019-03-28T19:42:22.603Z,24.30
2019-03-28T19:45:04.436Z,24.13
2019-03-28T19:47:46.348Z,25.00
2019-03-28T19:50:29.547Z,22.70
2019-03-28T19:53:11.898Z,23.67
2019-03-28T19:55:54.257Z,21.87
2019-03-28T19:58:36.012Z,21.90
2019-03-28T20:01:17.936Z,22.13
2019-03-28T20:03:59.823Z,21.20
2019-03-28T20:06:41.964Z,21.27
2019-03-28T20:09:23.780Z,21.53
2019-03-28T20:12:05.429Z,22.07
2019-03-28T20:14:48.084Z,23.20
2019-03-28T20:17:29.920Z,21.17
2019-03-28T20:20:12.070Z,23.60
2019-03-28T20:22:54.256Z,21.73
2019-03-28T20:25:35.289Z,24.32
2019-03-28T20:28:17.379Z,22.43
2019-03-28T20:30:59.424Z,23.03
2019-03-28T20:33:41.510Z,21.23
2019-03-28T20:36:37.000Z,20.63
2019-03-28T20:39:07.984Z,20.97
2019-03-28T20:41:49.667Z,24.83
2019-03-28T20:44:31.627Z,21.10
2019-03-28T20:47:13.593Z,21.83
2019-03-28T20:49:54.820Z,26.13
2019-03-28T20:52:36.864Z,24.50
2019-03-28T20:55:18.927Z,22.40
2019-03-28T20:58:00.927Z,26.70
2019-03-28T21:00:48.427Z,23.27
2019-03-28T21:03:30.215Z,25.97
2019-03-28T21:06:15.474Z,22.87
2019-03-28T21:08:55.335Z,24.70
2019-03-28T21:11:37.348Z,24.97
2019-03-28T21:14:19.566Z,24.73
2019-03-28T21:17:01.094Z,23.73
2019-03-28T21:19:42.884Z,21.73
2019-03-28T21:22:24.928Z,24.03
2019-03-28T21:25:06.866Z,24.27
2019-03-28T21:28:09.735Z,22.10
2019-03-28T21:31:11.868Z,22.73
2019-03-28T21:34:13.996Z,22.90
2019-03-28T21:37:14.975Z,22.57
2019-03-28T21:40:25.342Z,26.40
2019-03-28T21:43:26.516Z,23.00
2019-03-28T21:46:08.724Z,20.63
2019-03-28T21:48:50.475Z,19.10
2019-03-28T21:51:32.584Z,21.20
2019-03-28T21:54:33.519Z,20.77
2019-03-28T21:57:20.602Z,23.13
2019-03-28T22:00:23.683Z,22.90
2019-03-28T22:03:25.535Z,21.40
2019-03-28T22:06:27.475Z,25.70
2019-03-28T22:09:29.339Z,25.30
2019-03-28T22:12:30.375Z,24.07
2019-03-28T22:15:40.623Z,26.97
2019-03-28T22:18:41.604Z,26.70
2019-03-28T22:21:43.832Z,22.30
2019-03-28T22:24:45.830Z,20.33
2019-03-28T22:27:47.610Z,21.73
2019-03-28T22:30:49.080Z,24.47
2019-03-28T22:33:50.132Z,22.40
2019-03-28T22:36:57.699Z,21.83
2019-03-28T22:39:56.178Z,22.00
2019-03-28T22:42:58.411Z,19.27
2019-03-28T22:46:06.351Z,21.33
2019-03-28T22:49:08.412Z,20.47
2019-03-28T22:52:10.504Z,20.60
2019-03-28T22:55:12.720Z,20.17
2019-03-28T22:58:15.808Z,20.77
2019-03-28T23:01:17.096Z,20.50
2019-03-28T23:04:21.136Z,20.20
2019-03-28T23:07:25.118Z,19.90
2019-03-28T23:10:26.308Z,23.27
2019-03-28T23:13:28.395Z,22.30
2019-03-28T23:16:30.447Z,22.40
2019-03-28T23:19:32.399Z,25.07
2019-03-28T23:22:33.975Z,26.47
2019-03-28T23:25:36.890Z,21.80
2019-03-28T23:28:38.751Z,21.90
2019-03-28T23:31:40.704Z,21.97
2019-03-28T23:34:42.660Z,23.00
2019-03-28T23:37:43.652Z,21.80
2019-03-28T23:40:55.171Z,21.90
2019-03-28T23:43:57.940Z,22.00
2019-03-28T23:46:59.719Z,21.87
2019-03-28T23:50:01.839Z,21.13
2019-03-28T23:53:02.850Z,19.77
2019-03-28T23:56:13.851Z,19.33
2019-03-28T23:59:14.938Z,20.70
